Time;durP1;ratioP1;P1;durP2;ratioP2;P2;SDS_P1;SDS_P2;PMS_P1;PMS_P2;Temp;Humidity;BMP_temperature;BMP_pressure;BME280_temperature;BME280_humidity;BME280_pressure;Samples;Min_cycle;Max_cycle;Signal;HPM_P1;HPM_P2
2022/07/06 00:00:41;;;;;;;8.57;7.78;;;;;;;19.00;100.00;98194.25;5049980;28;20493;-77
2022/07/06 00:03:06;;;;;;;8.95;7.57;;;;;;;18.94;100.00;98181.75;5051714;28;20032;-77
2022/07/06 00:05:33;;;;;;;8.65;7.85;;;;;;;18.99;100.00;98191.78;5051375;28;20864;-78
2022/07/06 00:07:58;;;;;;;8.13;7.38;;;;;;;18.95;100.00;98190.88;5051646;28;20025;-78
2022/07/06 00:10:24;;;;;;;8.40;7.50;;;;;;;18.97;100.00;98189.38;5051405;28;20091;-78
2022/07/06 00:12:49;;;;;;;9.45;8.57;;;;;;;18.83;100.00;98172.25;5051506;28;20489;-78
2022/07/06 00:15:14;;;;;;;9.35;8.43;;;;;;;18.66;100.00;98164.97;5051207;28;20048;-77
2022/07/06 00:17:41;;;;;;;10.75;9.48;;;;;;;18.64;100.00;98177.50;5051197;28;20033;-77
2022/07/06 00:20:06;;;;;;;17.08;14.80;;;;;;;18.53;100.00;98170.78;5050508;28;20456;-80
2022/07/06 00:22:32;;;;;;;19.02;15.82;;;;;;;18.57;100.00;98174.50;5049992;28;20029;-76
2022/07/06 00:24:57;;;;;;;22.73;18.58;;;;;;;18.57;100.00;98174.50;5051451;28;20025;-80
2022/07/06 00:27:23;;;;;;;24.90;17.13;;;;;;;18.46;100.00;98171.31;5050028;28;20029;-77
2022/07/06 00:29:48;;;;;;;21.17;15.27;;;;;;;18.57;100.00;98178.09;5051018;28;20460;-77
2022/07/06 00:32:13;;;;;;;17.23;14.32;;;;;;;18.46;100.00;98173.28;5051484;28;20033;-79
2022/07/06 00:34:39;;;;;;;13.25;11.70;;;;;;;18.47;100.00;98161.88;5051110;28;20029;-80
2022/07/06 00:37:06;;;;;;;16.08;12.43;;;;;;;18.49;100.00;98169.81;5049264;28;20123;-77
2022/07/06 00:39:32;;;;;;;13.43;12.00;;;;;;;18.45;100.00;98174.44;5050434;28;20128;-78
2022/07/06 00:41:57;;;;;;;13.57;12.18;;;;;;;18.37;100.00;98167.84;5050875;28;20454;-78
2022/07/06 00:44:23;;;;;;;12.52;11.10;;;;;;;18.40;100.00;98174.66;5049955;28;20045;-79
2022/07/06 00:46:48;;;;;;;11.70;10.13;;;;;;;18.33;100.00;98161.34;5051499;28;20032;-79
2022/07/06 00:51:59;;;;;;;9.90;8.90;;;;;;;18.36;100.00;98185.59;5050442;28;20067;-80
2022/07/06 00:54:25;;;;;;;10.32;9.43;;;;;;;18.40;100.00;98191.25;5049059;28;20022;-80
2022/07/06 00:56:53;;;;;;;10.20;9.20;;;;;;;18.39;100.00;98187.69;5083240;28;20079;-78
2022/07/06 00:59:19;;;;;;;10.38;8.35;;;;;;;18.42;100.00;98191.75;5050643;28;20066;-78
2022/07/06 01:01:45;;;;;;;8.93;8.23;;;;;;;18.29;100.00;98176.22;5051532;28;20458;-78
2022/07/06 01:04:10;;;;;;;8.70;7.90;;;;;;;18.37;100.00;98186.41;5058283;28;20005;-78
2022/07/06 01:06:36;;;;;;;10.60;8.80;;;;;;;18.32;100.00;98181.09;5053937;28;20024;-80
2022/07/06 01:09:02;;;;;;;11.10;9.98;;;;;;;18.25;100.00;98172.50;5050785;28;20466;-77
2022/07/06 01:11:28;;;;;;;9.80;8.88;;;;;;;18.32;100.00;98186.63;5050413;28;20017;-78
2022/07/06 01:13:55;;;;;;;10.52;9.00;;;;;;;18.28;100.00;98186.50;5050539;28;20021;-79
2022/07/06 01:16:21;;;;;;;9.73;8.73;;;;;;;18.25;100.00;98194.66;5050355;28;20060;-79
2022/07/06 01:18:46;;;;;;;8.90;8.10;;;;;;;18.18;100.00;98187.72;5051075;28;20025;-78
2022/07/06 01:21:14;;;;;;;9.95;8.95;;;;;;;18.29;100.00;98188.13;5050753;28;20040;-77
2022/07/06 01:23:44;;;;;;;9.98;8.95;;;;;;;18.30;100.00;98188.91;5050394;28;20162;-77
2022/07/06 01:26:15;;;;;;;11.82;10.43;;;;;;;18.23;100.00;98185.91;5050586;28;20068;-79
2022/07/06 01:28:41;;;;;;;11.10;10.10;;;;;;;18.30;100.00;98186.13;5050183;28;20497;-79
2022/07/06 01:31:15;;;;;;;10.18;9.27;;;;;;;18.24;100.00;98177.25;5050706;28;20029;-78
2022/07/06 01:33:40;;;;;;;11.25;9.45;;;;;;;18.30;100.00;98183.38;5049101;28;20112;-78
2022/07/06 01:36:06;;;;;;;9.05;8.25;;;;;;;18.27;100.00;98186.81;5050218;28;20160;-78
2022/07/06 01:38:31;;;;;;;9.23;8.43;;;;;;;18.30;100.00;98188.91;5050452;28;20492;-77
2022/07/06 01:40:56;;;;;;;8.82;8.07;;;;;;;18.31;100.00;98179.47;5050296;28;20017;-78
2022/07/06 01:43:22;;;;;;;9.48;8.68;;;;;;;18.32;100.00;98183.84;5048748;28;20519;-78
2022/07/06 01:45:47;;;;;;;9.45;8.55;;;;;;;18.29;100.00;98190.91;5050250;28;20036;-76
2022/07/06 01:48:12;;;;;;;10.18;9.23;;;;;;;18.26;100.00;98176.91;5048826;28;20100;-77
2022/07/06 01:50:38;;;;;;;9.02;8.13;;;;;;;18.32;100.00;98186.63;5048674;28;20040;-78
2022/07/06 01:53:03;;;;;;;10.65;8.38;;;;;;;18.31;100.00;98183.03;5050251;28;20104;-78
2022/07/06 01:55:29;;;;;;;9.15;8.35;;;;;;;18.37;100.00;98187.22;5048162;28;20113;-79
2022/07/06 01:57:54;;;;;;;9.30;8.40;;;;;;;18.40;100.00;98192.06;5040712;28;20112;-76
2022/07/06 02:00:20;;;;;;;9.02;8.27;;;;;;;18.35;100.00;98192.31;5030426;28;20386;-79
2022/07/06 02:02:45;;;;;;;9.43;8.15;;;;;;;18.40;100.00;98194.03;5041621;28;20033;-76
2022/07/06 02:05:10;;;;;;;9.73;8.80;;;;;;;18.23;100.00;98167.28;5050124;28;20063;-76
2022/07/06 02:07:36;;;;;;;9.35;8.40;;;;;;;18.37;100.00;98183.63;5050475;28;20040;-75
2022/07/06 02:10:01;;;;;;;9.98;9.07;;;;;;;18.34;100.00;98185.13;5050414;28;20104;-76
2022/07/06 02:12:27;;;;;;;9.50;8.70;;;;;;;18.37;100.00;98189.19;5081917;28;20041;-76
2022/07/06 02:14:52;;;;;;;9.82;8.93;;;;;;;18.29;100.00;98170.69;5038289;28;20521;-78
2022/07/06 02:17:17;;;;;;;10.63;8.48;;;;;;;18.38;100.00;98186.09;5030089;28;20037;-78
2022/07/06 02:19:43;;;;;;;10.20;9.15;;;;;;;18.44;100.00;98183.91;5029692;28;20478;-78
2022/07/06 02:22:08;;;;;;;9.55;8.77;;;;;;;18.37;100.00;98189.19;5030536;28;20041;-77
2022/07/06 02:24:33;;;;;;;9.45;8.57;;;;;;;18.34;100.00;98192.63;5049426;28;20028;-76
2022/07/06 02:26:59;;;;;;;11.82;9.60;;;;;;;18.38;100.00;98202.69;5051882;28;20206;-76
2022/07/06 02:29:25;;;;;;;10.45;9.40;;;;;;;18.49;100.00;98186.44;5051259;28;20030;-74
2022/07/06 02:31:51;;;;;;;10.18;8.93;;;;;;;18.41;100.00;98168.78;5052336;28;20473;-75
2022/07/06 02:34:16;;;;;;;11.45;8.73;;;;;;;18.49;100.00;98181.75;5052321;28;20036;-75
2022/07/06 02:36:42;;;;;;;9.32;8.45;;;;;;;18.25;100.00;98158.66;5052535;28;20032;-75
2022/07/06 02:39:07;;;;;;;9.40;8.45;;;;;;;18.36;100.00;98177.28;5052168;28;20504;-75
2022/07/06 02:41:32;;;;;;;9.02;8.13;;;;;;;18.43;100.00;98185.84;5052595;28;20031;-75
2022/07/06 02:43:58;;;;;;;8.85;8.15;;;;;;;18.44;100.00;98195.78;5053041;28;20052;-75
2022/07/06 02:46:23;;;;;;;9.93;9.00;;;;;;;18.42;100.00;98186.22;5052864;28;20021;-75
2022/07/06 02:48:48;;;;;;;9.55;8.63;;;;;;;18.48;100.00;98196.72;5050681;28;20025;-75
2022/07/06 02:51:14;;;;;;;9.27;8.43;;;;;;;18.37;100.00;98191.94;5041226;28;20108;-75
2022/07/06 02:53:39;;;;;;;9.15;8.20;;;;;;;18.35;100.00;98197.03;5052938;28;20033;-74
2022/07/06 02:56:05;;;;;;;9.15;8.35;;;;;;;18.30;100.00;98202.75;5039208;28;20112;-76
2022/07/06 02:58:30;;;;;;;9.63;8.82;;;;;;;18.29;100.00;98201.97;5064631;28;20454;-75
2022/07/06 03:00:56;;;;;;;9.70;8.80;;;;;;;18.30;100.00;98213.84;5032868;28;20032;-75
2022/07/06 03:03:21;;;;;;;10.13;9.23;;;;;;;18.24;100.00;98204.13;5031144;28;20421;-76
2022/07/06 03:05:48;;;;;;;11.57;9.10;;;;;;;18.33;100.00;98205.66;5031156;28;20466;-75
2022/07/06 03:08:14;;;;;;;8.90;8.15;;;;;;;18.42;100.00;98208.38;5045356;28;20056;-76
2022/07/06 03:10:39;;;;;;;10.05;9.15;;;;;;;18.33;100.00;98200.13;5052299;28;20052;-75
2022/07/06 03:13:04;;;;;;;9.73;8.82;;;;;;;18.29;100.00;98190.06;5051821;28;20029;-77
2022/07/06 03:15:30;;;;;;;10.43;8.68;;;;;;;18.20;100.00;98188.19;5052042;28;20049;-75
2022/07/06 03:17:55;;;;;;;11.02;9.18;;;;;;;18.22;100.00;98195.34;5057139;28;20116;-77
2022/07/06 03:20:21;;;;;;;9.50;8.65;;;;;;;18.22;100.00;98193.38;5047296;28;20032;-76
2022/07/06 03:22:46;;;;;;;9.85;8.93;;;;;;;18.23;100.00;98188.66;5047841;28;20688;-75
2022/07/06 03:25:11;;;;;;;9.25;8.30;;;;;;;18.20;100.00;98184.59;5049992;28;20032;-75
2022/07/06 03:27:37;;;;;;;10.10;9.13;;;;;;;18.30;100.00;98202.75;5032255;28;20093;-76
2022/07/06 03:30:03;;;;;;;10.77;9.35;;;;;;;18.27;100.00;98201.47;5032651;28;20524;-75
2022/07/06 03:32:29;;;;;;;10.02;9.02;;;;;;;18.39;100.00;98220.09;5032177;28;20037;-75
2022/07/06 03:34:54;;;;;;;9.90;8.85;;;;;;;18.47;100.00;98211.75;5031884;28;20022;-75
2022/07/06 03:37:19;;;;;;;10.10;9.20;;;;;;;18.57;100.00;98205.81;5033835;28;20033;-74
2022/07/06 03:39:45;;;;;;;9.75;8.85;;;;;;;18.75;100.00;98211.97;5051626;28;20454;-76
2022/07/06 03:42:10;;;;;;;10.07;8.77;;;;;;;18.75;100.00;98195.34;5042143;28;20033;-75
2022/07/06 03:44:35;;;;;;;9.60;8.68;;;;;;;19.01;100.00;98209.72;5047867;28;20470;-75
2022/07/06 03:47:01;;;;;;;10.63;8.52;;;;;;;18.99;100.00;98194.56;5041314;28;20018;-76
2022/07/06 03:49:27;;;;;;;9.35;8.55;;;;;;;18.88;100.00;98188.69;5031972;28;20031;-76
2022/07/06 03:51:54;;;;;;;8.02;7.43;;;;;;;18.85;100.00;98196.88;5032289;28;20036;-76
2022/07/06 03:54:19;;;;;;;9.57;8.68;;;;;;;18.80;100.00;98206.19;5033259;28;20064;-75
2022/07/06 03:56:44;;;;;;;8.77;8.07;;;;;;;18.84;100.00;98200.78;5051754;28;20100;-77
2022/07/06 03:59:10;;;;;;;8.93;7.75;;;;;;;18.54;100.00;98172.44;5051865;28;20025;-75
2022/07/06 04:01:35;;;;;;;10.23;9.23;;;;;;;18.75;100.00;98191.75;5051974;28;20033;-76
2022/07/06 04:04:01;;;;;;;10.52;9.48;;;;;;;18.80;100.00;98194.28;5051615;28;20124;-75
2022/07/06 04:06:26;;;;;;;16.95;8.88;;;;;;;18.64;100.00;98183.06;5032729;28;20033;-76
2022/07/06 04:08:52;;;;;;;10.90;9.80;;;;;;;18.62;100.00;98185.38;5031676;28;20021;-75
2022/07/06 04:11:17;;;;;;;10.18;9.15;;;;;;;18.82;100.00;98186.47;5031338;28;20463;-76
2022/07/06 04:13:42;;;;;;;10.27;9.38;;;;;;;18.93;100.00;98180.13;5030997;28;20048;-78
2022/07/06 04:16:08;;;;;;;11.45;10.02;;;;;;;19.27;100.00;98192.75;5039499;28;20079;-74
2022/07/06 04:18:33;;;;;;;10.63;9.50;;;;;;;19.45;100.00;98196.94;5050948;28;20108;-75
2022/07/06 04:20:59;;;;;;;15.07;9.27;;;;;;;19.57;100.00;98190.59;5051076;28;20052;-76
2022/07/06 04:23:25;;;;;;;11.68;9.43;;;;;;;19.72;100.00;98198.19;5083647;28;20456;-75
2022/07/06 04:25:50;;;;;;;11.23;9.07;;;;;;;19.78;100.00;98194.84;5051229;28;20048;-76
2022/07/06 04:28:15;;;;;;;11.48;9.30;;;;;;;19.68;100.00;98175.06;5050810;28;20101;-76
2022/07/06 04:30:41;;;;;;;9.80;8.82;;;;;;;19.88;100.00;98188.00;5051457;28;20031;-76
2022/07/06 04:33:06;;;;;;;8.82;8.13;;;;;;;19.78;100.00;98186.50;5051089;28;20116;-76
2022/07/06 04:35:32;;;;;;;9.70;8.77;;;;;;;19.78;100.00;98197.63;5051167;28;20111;-75
2022/07/06 04:37:57;;;;;;;9.73;8.80;;;;;;;19.67;100.00;98210.34;5051093;28;20044;-76
2022/07/06 04:40:23;;;;;;;9.63;8.82;;;;;;;19.49;100.00;98203.41;5051086;28;20036;-77
2022/07/06 04:42:48;;;;;;;9.68;8.77;;;;;;;19.49;100.00;98202.59;5050862;28;20051;-77
2022/07/06 04:45:13;;;;;;;9.32;8.45;;;;;;;19.35;100.00;98197.41;5050571;28;20066;-76
2022/07/06 04:47:39;;;;;;;8.82;8.13;;;;;;;19.05;100.00;98195.97;5050786;28;20025;-76
2022/07/06 04:50:05;;;;;;;10.68;8.70;;;;;;;18.99;100.00;98200.13;5050927;28;20036;-76
2022/07/06 04:52:31;;;;;;;10.23;9.32;;;;;;;19.04;100.00;98208.22;5050908;28;20108;-75
2022/07/06 04:54:56;;;;;;;9.50;8.70;;;;;;;18.91;100.00;98212.94;5050078;28;20075;-74
2022/07/06 04:57:22;;;;;;;14.25;8.63;;;;;;;18.81;100.00;98193.97;5049983;28;20029;-75
2022/07/06 04:59:47;;;;;;;10.40;9.40;;;;;;;18.87;100.00;98203.69;5050936;28;20162;-76
2022/07/06 05:02:13;;;;;;;12.90;10.48;;;;;;;18.91;100.00;98210.16;5050757;28;20119;-74
2022/07/06 05:04:39;;;;;;;11.55;10.38;;;;;;;18.92;100.00;98217.31;5050959;28;20500;-74
2022/07/06 05:07:04;;;;;;;13.77;10.55;;;;;;;18.89;100.00;98223.53;5044576;28;20119;-75
2022/07/06 05:09:30;;;;;;;11.18;9.98;;;;;;;18.89;100.00;98229.09;5038944;28;20468;-76
2022/07/06 05:11:55;;;;;;;10.98;9.85;;;;;;;18.81;100.00;98218.09;5082684;28;20032;-75
2022/07/06 05:14:20;;;;;;;9.38;8.57;;;;;;;18.91;100.00;98226.81;5034723;28;20020;-76
2022/07/06 05:16:46;;;;;;;9.50;8.60;;;;;;;18.84;100.00;98222.97;5049880;28;20056;-71
2022/07/06 05:19:11;;;;;;;9.32;8.35;;;;;;;18.71;100.00;98217.38;5050184;28;20036;-71
2022/07/06 05:21:37;;;;;;;9.07;8.30;;;;;;;18.60;100.00;98220.94;5049020;28;20473;-71
2022/07/06 05:24:02;;;;;;;9.95;9.15;;;;;;;18.60;100.00;98209.84;5050168;28;20048;-71
2022/07/06 05:26:28;;;;;;;9.70;8.77;;;;;;;18.56;100.00;98215.25;5050172;28;20078;-71
2022/07/06 05:28:53;;;;;;;9.77;8.85;;;;;;;18.58;100.00;98217.69;5050428;28;20025;-70
2022/07/06 05:31:18;;;;;;;9.45;8.55;;;;;;;18.65;100.00;98223.47;5053243;28;20063;-71
2022/07/06 05:33:44;;;;;;;10.15;9.18;;;;;;;18.75;100.00;98217.50;5055854;28;20096;-71
2022/07/06 05:36:09;;;;;;;9.48;8.68;;;;;;;18.90;100.00;98224.34;5053393;28;20033;-73
2022/07/06 05:38:35;;;;;;;9.02;8.13;;;;;;;18.86;100.00;98227.00;5050384;28;20021;-71
2022/07/06 05:41:00;;;;;;;9.73;8.75;;;;;;;19.00;100.00;98235.84;5050918;28;20393;-72
2022/07/06 05:43:26;;;;;;;9.60;8.80;;;;;;;19.04;100.00;98241.50;5047793;28;20405;-71
2022/07/06 05:45:51;;;;;;;9.85;8.80;;;;;;;19.10;100.00;98234.59;5049038;28;20049;-72
2022/07/06 05:51:00;;;;;;;9.65;8.68;;;;;;;19.22;100.00;98232.63;5049498;28;20095;-72
2022/07/06 05:53:26;;;;;;;10.57;9.68;;;;;;;19.34;100.00;98240.16;5048946;28;20020;-72
2022/07/06 05:55:51;;;;;;;10.23;9.23;;;;;;;19.37;100.00;98245.00;5048221;28;20033;-72
2022/07/06 05:58:17;;;;;;;10.63;9.52;;;;;;;19.45;100.00;98230.22;5051368;28;20025;-72
2022/07/06 06:00:42;;;;;;;14.75;9.32;;;;;;;19.48;100.00;98240.69;5053388;28;20035;-73
2022/07/06 06:03:08;;;;;;;10.27;9.07;;;;;;;19.42;100.00;98232.91;5052777;28;20029;-72
2022/07/06 06:05:33;;;;;;;9.82;8.85;;;;;;;19.52;100.00;98224.94;5052690;28;20029;-72
2022/07/06 06:07:59;;;;;;;10.20;9.20;;;;;;;19.78;100.00;98238.44;5052639;28;20482;-72
2022/07/06 06:10:25;;;;;;;9.75;8.85;;;;;;;19.81;100.00;98234.16;5052673;28;20378;-72
2022/07/06 06:12:51;;;;;;;10.02;9.15;;;;;;;19.98;100.00;98243.06;5052663;28;20060;-72
2022/07/06 06:15:17;;;;;;;10.68;9.40;;;;;;;19.93;100.00;98226.63;5050500;28;20804;-72
2022/07/06 06:17:42;;;;;;;9.75;8.95;;;;;;;19.96;100.00;98223.16;5077702;28;20064;-72
2022/07/06 06:20:11;;;;;;;9.82;8.85;;;;;;;20.15;100.00;98237.22;5052646;28;20060;-72
2022/07/06 06:22:56;;;;;;;9.32;8.55;;;;;;;20.36;100.00;98233.50;5052588;28;20044;-72
2022/07/06 06:25:42;;;;;;;9.70;8.77;;;;;;;20.44;100.00;98227.00;5052496;28;20497;-72
2022/07/06 06:28:08;;;;;;;;;;;;;;;20.51;100.00;98233.56;5052543;28;20044;-71
2022/07/06 06:30:34;;;;;;;9.40;8.55;;;;;;;20.66;100.00;98232.00;5036789;28;20380;-72
2022/07/06 06:33:12;;;;;;;9.13;8.32;;;;;;;20.74;100.00;98231.81;5032603;28;20021;-72
2022/07/06 06:35:42;;;;;;;10.70;7.93;;;;;;;20.77;100.00;98230.31;5032432;28;20061;-73
2022/07/06 06:38:07;;;;;;;9.70;8.88;;;;;;;20.70;100.00;98236.50;5032193;28;20534;-72
2022/07/06 06:40:32;;;;;;;11.57;8.68;;;;;;;20.64;100.00;98235.13;5048427;28;20025;-73
2022/07/06 06:42:58;;;;;;;8.77;7.97;;;;;;;20.57;100.00;98221.03;5050249;28;20018;-72
2022/07/06 06:45:23;;;;;;;9.80;8.90;;;;;;;20.70;100.00;98246.81;5052172;28;20108;-72
2022/07/06 06:47:49;;;;;;;9.95;9.05;;;;;;;20.68;100.00;98232.44;5052027;28;20017;-72
2022/07/06 06:50:14;;;;;;;9.90;9.10;;;;;;;20.74;100.00;98239.34;5052166;28;20057;-72
2022/07/06 06:52:46;;;;;;;9.20;8.45;;;;;;;20.85;100.00;98232.13;5052132;28;20021;-73
2022/07/06 06:55:11;;;;;;;9.65;8.75;;;;;;;20.95;100.00;98231.63;5051718;28;20060;-72
2022/07/06 06:57:36;;;;;;;8.80;8.10;;;;;;;21.08;100.00;98229.56;5051696;28;20107;-73
2022/07/06 07:00:04;;;;;;;9.88;8.98;;;;;;;21.09;100.00;98229.22;5052348;28;20108;-73
2022/07/06 07:02:29;;;;;;;8.55;7.70;;;;;;;21.30;100.00;98231.78;5051913;28;20385;-72
2022/07/06 07:04:54;;;;;;;8.98;8.25;;;;;;;21.53;100.00;98234.72;5051953;28;20025;-70
2022/07/06 07:07:20;;;;;;;8.93;8.23;;;;;;;21.56;100.00;98228.44;5051822;28;20095;-72
2022/07/06 07:09:45;;;;;;;10.32;8.20;;;;;;;21.62;100.00;98225.00;5051806;28;20053;-71
2022/07/06 07:12:11;;;;;;;12.25;8.85;;;;;;;21.82;100.00;98218.34;5052416;28;20718;-72
2022/07/06 07:14:37;;;;;;;9.10;8.30;;;;;;;21.85;100.00;98225.16;5083968;28;20025;-70
2022/07/06 07:17:03;;;;;;;8.75;8.05;;;;;;;21.87;100.00;98218.06;5052278;28;20036;-71
2022/07/06 07:19:28;;;;;;;9.02;8.32;;;;;;;21.81;100.00;98213.13;5051968;28;20013;-71
2022/07/06 07:21:53;;;;;;;9.18;8.18;;;;;;;21.85;100.00;98214.84;5052062;28;20478;-71
2022/07/06 07:24:19;;;;;;;8.68;7.88;;;;;;;22.10;100.00;98222.97;5052103;28;20075;-72
2022/07/06 07:26:44;;;;;;;9.05;8.23;;;;;;;22.18;100.00;98216.38;5052194;28;20021;-71
2022/07/06 07:29:09;;;;;;;8.75;8.05;;;;;;;22.27;100.00;98225.34;5051755;28;20025;-71
2022/07/06 07:31:35;;;;;;;13.45;8.13;;;;;;;22.21;100.00;98218.47;5052358;28;20083;-71
2022/07/06 07:34:00;;;;;;;9.52;7.63;;;;;;;22.41;100.00;98226.44;5051598;28;20493;-71
2022/07/06 07:36:26;;;;;;;9.23;8.32;;;;;;;22.47;100.00;98223.38;5051249;28;20163;-71
2022/07/06 07:38:52;;;;;;;9.00;8.10;;;;;;;22.51;100.00;98218.66;5045043;28;20033;-71
2022/07/06 07:41:17;;;;;;;8.43;7.63;;;;;;;22.59;100.00;98223.22;5051648;28;20124;-71
2022/07/06 07:43:43;;;;;;;10.00;8.43;;;;;;;22.51;100.00;98219.50;5055640;28;20041;-72
2022/07/06 07:46:09;;;;;;;7.97;7.22;;;;;;;22.59;100.00;98226.00;5048679;28;20032;-71
2022/07/06 07:48:34;;;;;;;8.70;7.90;;;;;;;22.59;100.00;98228.78;5042202;28;20017;-71
2022/07/06 07:51:00;;;;;;;8.65;7.85;;;;;;;22.67;100.00;98227.81;5044517;28;20378;-71
2022/07/06 07:53:26;;;;;;;9.13;8.30;;;;;;;22.65;100.00;98219.78;5053359;28;20049;-71
2022/07/06 07:55:52;;;;;;;7.80;7.13;;;;;;;22.77;100.00;98222.41;5041067;28;20061;-71
2022/07/06 07:58:17;;;;;;;8.85;8.05;;;;;;;23.03;100.00;98230.09;5030908;28;20771;-75
2022/07/06 08:00:43;;;;;;;8.73;7.90;;;;;;;23.12;100.00;98227.88;5047402;28;20025;-71
2022/07/06 08:03:09;;;;;;;9.15;8.25;;;;;;;23.42;100.00;98231.66;5051284;28;20452;-71
2022/07/06 08:05:34;;;;;;;9.25;8.35;;;;;;;23.41;100.00;98210.47;5048631;28;20537;-71
2022/07/06 08:07:59;;;;;;;9.18;8.30;;;;;;;23.54;100.00;98221.44;5049780;28;20040;-70
2022/07/06 08:10:25;;;;;;;9.20;8.30;;;;;;;23.59;100.00;98230.31;5050569;28;20039;-71
2022/07/06 08:12:50;;;;;;;9.70;8.73;;;;;;;23.63;100.00;98220.00;5050494;28;20094;-71
2022/07/06 08:15:16;;;;;;;8.07;7.43;;;;;;;23.70;100.00;98216.53;5049333;28;20099;-71
2022/07/06 08:17:41;;;;;;;10.38;7.43;;;;;;;23.77;99.99;98222.22;5049407;28;20469;-71
2022/07/06 08:20:07;;;;;;;8.85;7.43;;;;;;;23.99;96.76;98215.78;5048321;28;20104;-71
2022/07/06 08:22:35;;;;;;;8.05;7.35;;;;;;;24.09;91.89;98215.09;5049442;28;20017;-71
2022/07/06 08:25:00;;;;;;;7.25;6.55;;;;;;;24.22;97.27;98210.94;5047450;28;20033;-71
2022/07/06 08:27:26;;;;;;;7.18;6.57;;;;;;;24.36;87.62;98211.13;5048841;28;20021;-71
2022/07/06 08:29:52;;;;;;;9.65;6.93;;;;;;;24.36;88.99;98216.72;5048839;28;20116;-71
2022/07/06 08:32:19;;;;;;;7.97;7.28;;;;;;;24.55;87.61;98206.56;5049293;28;20116;-71
2022/07/06 08:34:45;;;;;;;8.20;7.45;;;;;;;24.71;87.62;98212.75;5048875;28;20025;-72
2022/07/06 08:37:11;;;;;;;7.55;6.85;;;;;;;24.73;85.72;98210.38;5048585;28;20028;-71
2022/07/06 08:39:36;;;;;;;7.45;6.85;;;;;;;24.90;86.10;98204.22;5048079;28;20044;-71
2022/07/06 08:42:02;;;;;;;7.85;7.18;;;;;;;25.06;78.69;98198.38;5047141;28;20032;-71
2022/07/06 08:44:29;;;;;;;8.32;7.32;;;;;;;25.12;80.22;98199.63;5047323;28;20063;-71
2022/07/06 08:46:57;;;;;;;8.98;7.32;;;;;;;25.08;83.54;98208.00;5048814;28;20508;-70
2022/07/06 08:49:23;;;;;;;7.15;6.55;;;;;;;25.09;84.30;98206.00;5045816;28;20024;-70
2022/07/06 08:51:51;;;;;;;7.45;6.65;;;;;;;25.15;82.77;98191.28;5048796;28;20013;-70
2022/07/06 08:54:20;;;;;;;6.95;6.35;;;;;;;25.26;84.64;98206.19;5048844;28;20021;-70
2022/07/06 08:56:46;;;;;;;7.88;7.18;;;;;;;25.33;81.68;98208.25;5048871;28;20482;-70
2022/07/06 08:59:11;;;;;;;7.25;6.65;;;;;;;25.42;80.70;98209.53;5049001;28;20044;-70
2022/07/06 09:01:38;;;;;;;7.38;6.57;;;;;;;25.29;80.11;98213.81;5049456;28;20493;-71
2022/07/06 09:04:06;;;;;;;7.20;6.60;;;;;;;25.32;83.64;98210.22;5048700;28;20032;-71
2022/07/06 09:06:34;;;;;;;6.72;6.07;;;;;;;25.21;79.87;98209.34;5049061;28;20029;-72
2022/07/06 09:09:04;;;;;;;7.13;6.53;;;;;;;25.32;81.34;98215.84;5048711;28;20037;-71
2022/07/06 09:11:30;;;;;;;8.40;6.45;;;;;;;25.41;80.56;98216.31;5048547;28;20037;-72
2022/07/06 09:13:56;;;;;;;6.90;6.03;;;;;;;25.39;79.10;98217.91;5049096;28;20522;-71
2022/07/06 09:16:28;;;;;;;7.30;6.70;;;;;;;25.47;75.64;98214.75;5048758;28;20529;-71
2022/07/06 09:18:53;;;;;;;7.00;6.43;;;;;;;25.46;77.46;98215.16;5048455;28;20079;-72
2022/07/06 09:21:32;;;;;;;6.50;6.00;;;;;;;25.50;76.59;98216.00;5046512;28;20052;-73
2022/07/06 09:23:59;;;;;;;6.50;6.00;;;;;;;25.69;76.36;98212.16;5058199;28;20029;-72
2022/07/06 09:26:25;;;;;;;6.53;5.93;;;;;;;25.77;74.03;98203.44;5059548;28;20029;-72
2022/07/06 09:28:51;;;;;;;6.45;5.57;;;;;;;25.85;72.96;98210.69;5061460;28;20066;-73
2022/07/06 09:31:16;;;;;;;7.15;6.38;;;;;;;25.79;74.64;98205.84;5052127;28;20032;-71
2022/07/06 09:33:55;;;;;;;6.63;6.03;;;;;;;25.78;73.21;98210.63;5057428;28;20036;-71
2022/07/06 09:36:42;;;;;;;7.80;5.63;;;;;;;25.82;75.10;98213.47;5061905;28;20131;-72
2022/07/06 09:39:23;;;;;;;6.70;6.05;;;;;;;25.87;73.13;98213.13;5054436;28;20033;-71
2022/07/06 09:42:00;;;;;;;9.90;6.18;;;;;;;25.87;73.52;98205.53;5049371;28;20432;-72
2022/07/06 09:44:36;;;;;;;6.40;5.78;;;;;;;25.94;68.73;98204.72;5052308;28;20036;-71
2022/07/06 09:47:05;;;;;;;6.07;5.55;;;;;;;25.92;66.72;98201.53;5054122;28;20029;-71
2022/07/06 09:49:30;;;;;;;5.68;5.18;;;;;;;25.94;64.74;98197.13;5056021;28;20469;-72
2022/07/06 09:51:58;;;;;;;6.18;5.25;;;;;;;26.13;64.99;98200.84;5054314;28;20070;-71
2022/07/06 09:54:24;;;;;;;6.97;5.43;;;;;;;26.20;61.80;98198.94;5051173;28;20031;-71
2022/07/06 09:56:51;;;;;;;5.13;4.63;;;;;;;26.22;60.92;98196.53;5054515;28;20029;-72
2022/07/06 09:59:18;;;;;;;6.00;4.93;;;;;;;26.40;61.94;98186.22;5078921;28;20040;-73
2022/07/06 10:01:44;;;;;;;5.75;4.85;;;;;;;26.50;60.80;98193.84;5051220;28;20055;-81
2022/07/06 10:04:18;;;;;;;4.53;4.10;;;;;;;26.35;57.74;98189.38;5063335;28;20056;-74
2022/07/06 10:06:44;;;;;;;4.28;3.85;;;;;;;26.07;57.70;98184.41;5043395;28;20552;-75
2022/07/06 10:09:11;;;;;;;4.53;3.85;;;;;;;25.70;57.58;98192.16;5039202;28;20033;-72
2022/07/06 10:11:42;;;;;;;5.38;3.63;;;;;;;25.50;58.37;98196.41;5057376;28;20428;-72
2022/07/06 10:14:10;;;;;;;4.35;3.67;;;;;;;25.50;59.99;98188.81;5045248;28;20191;-73
2022/07/06 10:16:37;;;;;;;4.50;3.78;;;;;;;25.56;60.36;98184.44;5042051;28;20048;-73
2022/07/06 10:19:08;;;;;;;7.03;3.40;;;;;;;25.75;60.52;98179.78;5062195;28;20040;-73
2022/07/06 10:21:38;;;;;;;3.95;3.33;;;;;;;25.80;59.55;98176.63;5056391;28;20048;-73
2022/07/06 10:24:05;;;;;;;4.43;3.50;;;;;;;26.32;56.20;98183.75;5031836;28;20029;-72
2022/07/06 10:26:33;;;;;;;4.20;3.25;;;;;;;26.44;55.67;98175.78;5060094;28;20485;-73
2022/07/06 10:29:00;;;;;;;5.18;3.33;;;;;;;26.45;55.79;98170.97;5056306;28;20029;-74
2022/07/06 10:31:26;;;;;;;4.75;3.13;;;;;;;26.91;53.07;98176.78;5096425;28;20033;-72
2022/07/06 10:33:56;;;;;;;3.53;2.78;;;;;;;28.04;48.64;98171.97;5067220;28;20037;-71
2022/07/06 10:36:23;;;;;;;4.43;2.88;;;;;;;28.63;45.92;98175.03;5061465;28;20037;-72
2022/07/06 10:38:50;;;;;;;3.00;2.40;;;;;;;28.75;45.96;98177.41;5055197;28;20068;-72
2022/07/06 10:41:16;;;;;;;4.22;2.60;;;;;;;28.88;45.52;98180.56;5053061;28;20547;-73
2022/07/06 10:43:42;;;;;;;3.40;2.70;;;;;;;29.28;44.45;98177.09;5037605;28;20033;-72
2022/07/06 10:46:11;;;;;;;3.65;2.40;;;;;;;28.73;40.77;98176.19;5043862;28;20366;-72
2022/07/06 10:48:39;;;;;;;3.85;2.65;;;;;;;28.76;41.02;98169.78;5041713;28;20115;-72
2022/07/06 10:51:05;;;;;;;4.45;2.40;;;;;;;28.84;39.30;98180.59;5067082;28;20047;-73
2022/07/06 10:53:33;;;;;;;2.70;2.08;;;;;;;28.80;38.34;98174.16;5055573;28;20047;-71
2022/07/06 10:56:02;;;;;;;2.78;2.47;;;;;;;28.75;38.56;98176.59;5057085;28;20102;-72
2022/07/06 10:58:52;;;;;;;4.57;2.70;;;;;;;29.10;38.81;98170.78;5061837;28;20039;-73
2022/07/06 11:01:20;;;;;;;3.53;2.47;;;;;;;29.27;35.69;98174.69;5067906;28;20024;-72
2022/07/06 11:03:50;;;;;;;3.15;2.30;;;;;;;29.94;35.48;98169.31;5055442;28;20025;-73
2022/07/06 11:06:21;;;;;;;4.05;2.30;;;;;;;30.60;34.27;98157.69;5063052;28;20071;-73
2022/07/06 11:08:57;;;;;;;3.53;2.58;;;;;;;30.70;33.41;98166.00;5055854;28;20032;-72
2022/07/06 11:11:31;;;;;;;4.30;2.70;;;;;;;30.65;33.42;98162.84;5066166;28;20029;-73
2022/07/06 11:14:03;;;;;;;3.80;2.58;;;;;;;30.64;34.00;98155.59;5057252;28;20036;-73
2022/07/06 11:16:34;;;;;;;4.28;2.72;;;;;;;29.41;36.46;98154.84;5058207;28;20045;-74
2022/07/06 11:19:11;;;;;;;3.30;2.50;;;;;;;29.44;35.92;98166.13;5067991;28;20116;-73
2022/07/06 11:21:39;;;;;;;5.20;2.30;;;;;;;28.81;35.73;98158.06;5055537;28;20036;-74
2022/07/06 11:24:07;;;;;;;3.63;2.28;;;;;;;29.03;35.72;98154.72;5069157;28;20036;-75
2022/07/06 11:26:36;;;;;;;3.72;2.45;;;;;;;29.59;35.71;98147.03;5069784;28;20029;-75